Terminal Aerodrome Forecast
Issued by NWS Los Angeles, CA

Home | Current Version | Previous Version | Text Only | Print | Product List | Glossary On
Versions: 1 2 3 4 5 6 7 8 9 10 11 12 13
906
FTUS46 KLOX 261140
TAFSMX
TAF
KSMX 261140Z 2612/2712 VRB03KT P6SM SKC
     FM262000 31012KT P6SM SKC
     FM270300 VRB03KT P6SM SKC=

USA.gov is the U.S. government's official web portal to all federal, state and local government web resources and services.